sensor_id;sensor_type;location;lat;lon;timestamp;temperature;humidity
71237;DHT22;58984;51.960;5.582;2022-12-18T00:01:28;6.20;48.40
71237;DHT22;58984;51.960;5.582;2022-12-18T00:03:55;6.30;48.40
71237;DHT22;58984;51.960;5.582;2022-12-18T00:06:21;6.20;48.40
71237;DHT22;58984;51.960;5.582;2022-12-18T00:08:47;6.20;48.40
71237;DHT22;58984;51.960;5.582;2022-12-18T00:11:15;6.20;48.30
71237;DHT22;58984;51.960;5.582;2022-12-18T00:13:41;6.20;48.30
71237;DHT22;58984;51.960;5.582;2022-12-18T00:16:09;6.20;48.40
71237;DHT22;58984;51.960;5.582;2022-12-18T00:18:35;6.20;48.30
71237;DHT22;58984;51.960;5.582;2022-12-18T00:21:06;6.20;48.30
71237;DHT22;58984;51.960;5.582;2022-12-18T00:23:33;6.20;48.20
71237;DHT22;58984;51.960;5.582;2022-12-18T00:26:03;6.10;48.20
71237;DHT22;58984;51.960;5.582;2022-12-18T00:28:29;6.10;48.20
71237;DHT22;58984;51.960;5.582;2022-12-18T00:31:02;6.10;48.20
71237;DHT22;58984;51.960;5.582;2022-12-18T00:33:28;6.10;48.10
71237;DHT22;58984;51.960;5.582;2022-12-18T00:35:54;6.10;48.20
71237;DHT22;58984;51.960;5.582;2022-12-18T00:38:19;6.10;48.20
71237;DHT22;58984;51.960;5.582;2022-12-18T00:40:45;6.10;48.30
71237;DHT22;58984;51.960;5.582;2022-12-18T00:43:10;6.10;48.30
71237;DHT22;58984;51.960;5.582;2022-12-18T00:45:36;6.10;48.90
71237;DHT22;58984;51.960;5.582;2022-12-18T00:48:01;6.10;48.30
71237;DHT22;58984;51.960;5.582;2022-12-18T00:50:27;6.00;48.10
71237;DHT22;58984;51.960;5.582;2022-12-18T00:52:52;6.10;48.30
71237;DHT22;58984;51.960;5.582;2022-12-18T00:55:18;6.00;48.10
71237;DHT22;58984;51.960;5.582;2022-12-18T00:57:44;6.00;48.00
71237;DHT22;58984;51.960;5.582;2022-12-18T01:00:12;6.00;48.00
71237;DHT22;58984;51.960;5.582;2022-12-18T01:02:38;6.00;47.90
71237;DHT22;58984;51.960;5.582;2022-12-18T01:05:04;6.00;47.90
71237;DHT22;58984;51.960;5.582;2022-12-18T01:07:30;6.00;47.90
71237;DHT22;58984;51.960;5.582;2022-12-18T01:09:55;6.00;47.90
71237;DHT22;58984;51.960;5.582;2022-12-18T01:12:21;6.00;47.90
71237;DHT22;58984;51.960;5.582;2022-12-18T01:14:46;5.90;47.90
71237;DHT22;58984;51.960;5.582;2022-12-18T01:17:12;5.90;47.90
71237;DHT22;58984;51.960;5.582;2022-12-18T01:19:38;5.90;47.80
71237;DHT22;58984;51.960;5.582;2022-12-18T01:22:03;5.90;47.80
71237;DHT22;58984;51.960;5.582;2022-12-18T01:24:29;5.90;47.80
71237;DHT22;58984;51.960;5.582;2022-12-18T01:26:54;5.90;47.80
71237;DHT22;58984;51.960;5.582;2022-12-18T01:29:20;5.90;47.80
71237;DHT22;58984;51.960;5.582;2022-12-18T01:31:45;5.90;47.70
71237;DHT22;58984;51.960;5.582;2022-12-18T01:34:11;5.90;47.70
71237;DHT22;58984;51.960;5.582;2022-12-18T01:36:38;5.90;47.70
71237;DHT22;58984;51.960;5.582;2022-12-18T01:39:12;5.90;47.70
71237;DHT22;58984;51.960;5.582;2022-12-18T01:41:38;5.80;47.60
71237;DHT22;58984;51.960;5.582;2022-12-18T01:44:58;5.90;47.60
71237;DHT22;58984;51.960;5.582;2022-12-18T01:48:04;5.80;47.50
71237;DHT22;58984;51.960;5.582;2022-12-18T01:53:06;5.70;47.50
71237;DHT22;58984;51.960;5.582;2022-12-18T01:55:37;5.80;47.50
71237;DHT22;58984;51.960;5.582;2022-12-18T01:58:04;5.80;47.50
71237;DHT22;58984;51.960;5.582;2022-12-18T02:00:30;5.70;47.40
71237;DHT22;58984;51.960;5.582;2022-12-18T02:02:56;5.70;47.40
71237;DHT22;58984;51.960;5.582;2022-12-18T02:08:35;5.70;47.40
71237;DHT22;58984;51.960;5.582;2022-12-18T02:14:06;5.70;47.40
71237;DHT22;58984;51.960;5.582;2022-12-18T02:21:51;5.60;47.30
71237;DHT22;58984;51.960;5.582;2022-12-18T02:24:45;5.60;47.30
71237;DHT22;58984;51.960;5.582;2022-12-18T02:27:16;5.60;47.30
71237;DHT22;58984;51.960;5.582;2022-12-18T02:29:50;5.60;47.30
71237;DHT22;58984;51.960;5.582;2022-12-18T02:32:22;5.60;47.30
71237;DHT22;58984;51.960;5.582;2022-12-18T02:34:51;5.60;47.30
71237;DHT22;58984;51.960;5.582;2022-12-18T02:37:18;5.60;47.30
71237;DHT22;58984;51.960;5.582;2022-12-18T02:39:46;5.60;47.30
71237;DHT22;58984;51.960;5.582;2022-12-18T02:42:12;5.60;47.30
71237;DHT22;58984;51.960;5.582;2022-12-18T02:44:49;5.60;47.30
71237;DHT22;58984;51.960;5.582;2022-12-18T02:47:18;5.60;47.30
71237;DHT22;58984;51.960;5.582;2022-12-18T02:55:26;5.50;47.20
71237;DHT22;58984;51.960;5.582;2022-12-18T02:57:56;5.60;47.30
71237;DHT22;58984;51.960;5.582;2022-12-18T03:00:29;5.50;47.30
71237;DHT22;58984;51.960;5.582;2022-12-18T03:03:24;5.50;47.30
71237;DHT22;58984;51.960;5.582;2022-12-18T03:05:55;5.50;47.30
71237;DHT22;58984;51.960;5.582;2022-12-18T03:08:27;5.50;47.30
71237;DHT22;58984;51.960;5.582;2022-12-18T03:11:01;5.50;47.30
71237;DHT22;58984;51.960;5.582;2022-12-18T03:13:52;5.50;47.30
71237;DHT22;58984;51.960;5.582;2022-12-18T03:16:27;5.50;47.30
71237;DHT22;58984;51.960;5.582;2022-12-18T03:19:06;5.40;47.10
71237;DHT22;58984;51.960;5.582;2022-12-18T03:21:54;5.50;47.30
71237;DHT22;58984;51.960;5.582;2022-12-18T03:24:21;5.40;47.20
71237;DHT22;58984;51.960;5.582;2022-12-18T03:26:52;5.40;47.20
71237;DHT22;58984;51.960;5.582;2022-12-18T03:29:25;5.40;47.20
71237;DHT22;58984;51.960;5.582;2022-12-18T03:31:58;5.40;47.20
71237;DHT22;58984;51.960;5.582;2022-12-18T03:34:34;5.40;47.20
71237;DHT22;58984;51.960;5.582;2022-12-18T03:37:01;5.40;47.10
71237;DHT22;58984;51.960;5.582;2022-12-18T03:39:26;5.40;47.10
71237;DHT22;58984;51.960;5.582;2022-12-18T03:45:16;5.40;47.80
71237;DHT22;58984;51.960;5.582;2022-12-18T03:47:59;5.40;47.20
71237;DHT22;58984;51.960;5.582;2022-12-18T03:53:32;5.30;47.20
71237;DHT22;58984;51.960;5.582;2022-12-18T03:56:01;5.40;47.20
71237;DHT22;58984;51.960;5.582;2022-12-18T03:58:28;5.30;47.20
71237;DHT22;58984;51.960;5.582;2022-12-18T04:00:56;5.30;47.20
71237;DHT22;58984;51.960;5.582;2022-12-18T04:03:25;5.30;47.10
71237;DHT22;58984;51.960;5.582;2022-12-18T04:05:52;5.30;47.10
71237;DHT22;58984;51.960;5.582;2022-12-18T04:08:20;5.30;47.10
71237;DHT22;58984;51.960;5.582;2022-12-18T04:10:46;5.30;47.10
71237;DHT22;58984;51.960;5.582;2022-12-18T04:13:11;5.30;47.10
71237;DHT22;58984;51.960;5.582;2022-12-18T04:15:37;5.30;47.10
71237;DHT22;58984;51.960;5.582;2022-12-18T04:18:04;5.30;47.10
71237;DHT22;58984;51.960;5.582;2022-12-18T04:20:29;5.30;47.10
71237;DHT22;58984;51.960;5.582;2022-12-18T04:22:55;5.30;47.20
71237;DHT22;58984;51.960;5.582;2022-12-18T04:25:21;5.30;47.10
71237;DHT22;58984;51.960;5.582;2022-12-18T04:27:46;5.30;47.10
71237;DHT22;58984;51.960;5.582;2022-12-18T04:30:12;5.30;47.20
71237;DHT22;58984;51.960;5.582;2022-12-18T04:32:37;5.30;47.10
71237;DHT22;58984;51.960;5.582;2022-12-18T04:35:03;5.20;47.00
71237;DHT22;58984;51.960;5.582;2022-12-18T04:37:31;5.20;47.00
71237;DHT22;58984;51.960;5.582;2022-12-18T04:39:57;5.20;47.00
71237;DHT22;58984;51.960;5.582;2022-12-18T04:42:22;5.30;47.10
71237;DHT22;58984;51.960;5.582;2022-12-18T04:44:48;5.20;47.10
71237;DHT22;58984;51.960;5.582;2022-12-18T04:47:14;5.20;47.00
71237;DHT22;58984;51.960;5.582;2022-12-18T04:49:39;5.20;47.00
71237;DHT22;58984;51.960;5.582;2022-12-18T04:52:05;5.20;47.00
71237;DHT22;58984;51.960;5.582;2022-12-18T04:54:30;5.20;47.00
71237;DHT22;58984;51.960;5.582;2022-12-18T04:56:56;5.20;47.00
71237;DHT22;58984;51.960;5.582;2022-12-18T04:59:21;5.20;47.00
71237;DHT22;58984;51.960;5.582;2022-12-18T05:01:47;5.20;47.70
71237;DHT22;58984;51.960;5.582;2022-12-18T05:04:12;5.20;47.00
71237;DHT22;58984;51.960;5.582;2022-12-18T05:06:38;5.20;47.00
71237;DHT22;58984;51.960;5.582;2022-12-18T05:09:03;5.20;47.00
71237;DHT22;58984;51.960;5.582;2022-12-18T05:11:29;5.20;47.00
71237;DHT22;58984;51.960;5.582;2022-12-18T05:13:54;5.20;47.00
71237;DHT22;58984;51.960;5.582;2022-12-18T05:16:20;5.20;47.10
71237;DHT22;58984;51.960;5.582;2022-12-18T05:18:46;5.10;47.00
71237;DHT22;58984;51.960;5.582;2022-12-18T05:21:11;5.20;47.00
71237;DHT22;58984;51.960;5.582;2022-12-18T05:23:37;5.10;46.90
71237;DHT22;58984;51.960;5.582;2022-12-18T05:26:04;5.10;47.00
71237;DHT22;58984;51.960;5.582;2022-12-18T05:28:31;5.10;46.90
71237;DHT22;58984;51.960;5.582;2022-12-18T05:30:59;5.10;47.00
71237;DHT22;58984;51.960;5.582;2022-12-18T05:33:26;5.10;46.90
71237;DHT22;58984;51.960;5.582;2022-12-18T05:35:57;5.10;46.90
71237;DHT22;58984;51.960;5.582;2022-12-18T05:38:24;5.10;46.90
71237;DHT22;58984;51.960;5.582;2022-12-18T05:40:51;5.10;47.00
71237;DHT22;58984;51.960;5.582;2022-12-18T05:43:17;5.10;46.90
71237;DHT22;58984;51.960;5.582;2022-12-18T05:45:43;5.10;46.90
71237;DHT22;58984;51.960;5.582;2022-12-18T05:48:09;5.10;46.90
71237;DHT22;58984;51.960;5.582;2022-12-18T05:50:39;5.00;46.80
71237;DHT22;58984;51.960;5.582;2022-12-18T05:53:06;5.00;46.80
71237;DHT22;58984;51.960;5.582;2022-12-18T05:55:35;5.00;46.80
71237;DHT22;58984;51.960;5.582;2022-12-18T05:58:02;5.00;46.80
71237;DHT22;58984;51.960;5.582;2022-12-18T06:00:29;5.00;46.80
71237;DHT22;58984;51.960;5.582;2022-12-18T06:02:54;5.00;46.80
71237;DHT22;58984;51.960;5.582;2022-12-18T06:05:20;5.00;46.70
71237;DHT22;58984;51.960;5.582;2022-12-18T06:07:46;5.00;46.80
71237;DHT22;58984;51.960;5.582;2022-12-18T06:10:11;5.10;46.90
71237;DHT22;58984;51.960;5.582;2022-12-18T06:12:37;5.00;46.70
71237;DHT22;58984;51.960;5.582;2022-12-18T06:15:03;5.00;46.80
71237;DHT22;58984;51.960;5.582;2022-12-18T06:17:34;5.00;46.80
71237;DHT22;58984;51.960;5.582;2022-12-18T06:19:59;5.00;46.80
71237;DHT22;58984;51.960;5.582;2022-12-18T06:22:26;5.00;46.80
71237;DHT22;58984;51.960;5.582;2022-12-18T06:24:52;5.00;46.80
71237;DHT22;58984;51.960;5.582;2022-12-18T06:27:18;5.00;46.80
71237;DHT22;58984;51.960;5.582;2022-12-18T06:29:43;5.00;46.80
71237;DHT22;58984;51.960;5.582;2022-12-18T06:32:09;5.00;46.80
71237;DHT22;58984;51.960;5.582;2022-12-18T06:34:37;5.00;46.80
71237;DHT22;58984;51.960;5.582;2022-12-18T06:37:03;5.00;46.80
71237;DHT22;58984;51.960;5.582;2022-12-18T06:39:28;5.00;46.80
71237;DHT22;58984;51.960;5.582;2022-12-18T06:41:54;4.90;46.80
71237;DHT22;58984;51.960;5.582;2022-12-18T06:44:20;4.90;46.80
71237;DHT22;58984;51.960;5.582;2022-12-18T06:46:45;4.90;46.80
71237;DHT22;58984;51.960;5.582;2022-12-18T06:49:11;4.90;46.70
71237;DHT22;58984;51.960;5.582;2022-12-18T06:51:37;4.90;46.70
71237;DHT22;58984;51.960;5.582;2022-12-18T06:54:03;4.90;46.70
71237;DHT22;58984;51.960;5.582;2022-12-18T06:56:29;4.90;46.70
71237;DHT22;58984;51.960;5.582;2022-12-18T06:58:54;4.90;46.80
71237;DHT22;58984;51.960;5.582;2022-12-18T07:01:21;4.90;46.80
71237;DHT22;58984;51.960;5.582;2022-12-18T07:03:46;4.90;46.80
71237;DHT22;58984;51.960;5.582;2022-12-18T07:06:17;4.90;46.80
71237;DHT22;58984;51.960;5.582;2022-12-18T07:08:43;4.90;46.80
71237;DHT22;58984;51.960;5.582;2022-12-18T07:11:08;4.90;46.80
71237;DHT22;58984;51.960;5.582;2022-12-18T07:13:34;4.90;46.80
71237;DHT22;58984;51.960;5.582;2022-12-18T07:16:07;4.90;46.80
71237;DHT22;58984;51.960;5.582;2022-12-18T07:18:33;4.90;46.80
71237;DHT22;58984;51.960;5.582;2022-12-18T07:21:03;4.90;46.80
71237;DHT22;58984;51.960;5.582;2022-12-18T07:23:28;4.80;46.70
71237;DHT22;58984;51.960;5.582;2022-12-18T07:25:54;4.80;46.70
71237;DHT22;58984;51.960;5.582;2022-12-18T07:28:19;4.80;46.80
71237;DHT22;58984;51.960;5.582;2022-12-18T07:30:45;4.90;46.90
71237;DHT22;58984;51.960;5.582;2022-12-18T07:33:10;4.80;46.70
71237;DHT22;58984;51.960;5.582;2022-12-18T07:35:36;4.90;46.80
71237;DHT22;58984;51.960;5.582;2022-12-18T07:38:02;4.90;46.80
71237;DHT22;58984;51.960;5.582;2022-12-18T07:40:27;4.80;46.70
71237;DHT22;58984;51.960;5.582;2022-12-18T07:42:53;4.80;46.70
71237;DHT22;58984;51.960;5.582;2022-12-18T07:45:18;4.80;46.70
71237;DHT22;58984;51.960;5.582;2022-12-18T07:47:44;4.80;46.70
71237;DHT22;58984;51.960;5.582;2022-12-18T07:50:10;4.80;46.70
71237;DHT22;58984;51.960;5.582;2022-12-18T07:52:36;4.90;46.80
71237;DHT22;58984;51.960;5.582;2022-12-18T07:55:02;4.80;46.70
71237;DHT22;58984;51.960;5.582;2022-12-18T07:57:27;4.90;46.90
71237;DHT22;58984;51.960;5.582;2022-12-18T07:59:53;4.80;46.70
71237;DHT22;58984;51.960;5.582;2022-12-18T08:02:18;4.80;46.70
71237;DHT22;58984;51.960;5.582;2022-12-18T08:04:44;4.80;46.70
71237;DHT22;58984;51.960;5.582;2022-12-18T08:07:10;4.80;46.70
71237;DHT22;58984;51.960;5.582;2022-12-18T08:09:35;4.90;46.80
71237;DHT22;58984;51.960;5.582;2022-12-18T08:12:01;4.80;46.70
71237;DHT22;58984;51.960;5.582;2022-12-18T08:14:26;4.80;46.70
71237;DHT22;58984;51.960;5.582;2022-12-18T08:16:52;4.80;46.70
71237;DHT22;58984;51.960;5.582;2022-12-18T08:19:17;4.80;46.70
71237;DHT22;58984;51.960;5.582;2022-12-18T08:21:43;4.80;46.70
71237;DHT22;58984;51.960;5.582;2022-12-18T08:24:09;4.80;46.70
71237;DHT22;58984;51.960;5.582;2022-12-18T08:26:35;4.90;46.80
71237;DHT22;58984;51.960;5.582;2022-12-18T08:29:01;4.80;46.70
71237;DHT22;58984;51.960;5.582;2022-12-18T08:31:27;4.90;46.80
71237;DHT22;58984;51.960;5.582;2022-12-18T08:33:54;4.90;46.80
71237;DHT22;58984;51.960;5.582;2022-12-18T08:36:21;4.90;46.80
71237;DHT22;58984;51.960;5.582;2022-12-18T08:38:47;4.90;46.90
71237;DHT22;58984;51.960;5.582;2022-12-18T08:41:14;4.90;46.90
71237;DHT22;58984;51.960;5.582;2022-12-18T08:43:41;4.80;46.90
71237;DHT22;58984;51.960;5.582;2022-12-18T08:46:27;4.90;47.10
71237;DHT22;58984;51.960;5.582;2022-12-18T08:48:53;4.90;47.00
71237;DHT22;58984;51.960;5.582;2022-12-18T08:51:19;4.90;47.00
71237;DHT22;58984;51.960;5.582;2022-12-18T08:53:45;4.90;47.00
71237;DHT22;58984;51.960;5.582;2022-12-18T08:56:11;4.90;47.10
71237;DHT22;58984;51.960;5.582;2022-12-18T08:58:37;4.90;47.10
71237;DHT22;58984;51.960;5.582;2022-12-18T09:01:04;4.90;47.10
71237;DHT22;58984;51.960;5.582;2022-12-18T09:03:30;4.90;47.10
71237;DHT22;58984;51.960;5.582;2022-12-18T09:05:55;4.90;47.20
71237;DHT22;58984;51.960;5.582;2022-12-18T09:08:21;4.90;47.30
71237;DHT22;58984;51.960;5.582;2022-12-18T09:10:48;5.00;47.40
71237;DHT22;58984;51.960;5.582;2022-12-18T09:13:15;5.00;47.40
71237;DHT22;58984;51.960;5.582;2022-12-18T09:15:46;5.00;47.40
71237;DHT22;58984;51.960;5.582;2022-12-18T09:18:14;5.00;47.40
71237;DHT22;58984;51.960;5.582;2022-12-18T09:20:39;5.00;47.60
71237;DHT22;58984;51.960;5.582;2022-12-18T09:23:06;5.00;47.60
71237;DHT22;58984;51.960;5.582;2022-12-18T09:25:32;5.00;47.60
71237;DHT22;58984;51.960;5.582;2022-12-18T09:27:59;5.00;47.60
71237;DHT22;58984;51.960;5.582;2022-12-18T09:30:26;5.10;47.70
71237;DHT22;58984;51.960;5.582;2022-12-18T09:32:53;5.10;47.70
71237;DHT22;58984;51.960;5.582;2022-12-18T09:35:18;5.10;47.80
71237;DHT22;58984;51.960;5.582;2022-12-18T09:37:44;5.10;47.70
71237;DHT22;58984;51.960;5.582;2022-12-18T09:40:18;5.10;47.70
71237;DHT22;58984;51.960;5.582;2022-12-18T09:42:47;5.10;47.80
71237;DHT22;58984;51.960;5.582;2022-12-18T09:45:16;5.10;47.90
71237;DHT22;58984;51.960;5.582;2022-12-18T09:47:43;5.10;47.80
71237;DHT22;58984;51.960;5.582;2022-12-18T09:50:32;5.20;47.90
71237;DHT22;58984;51.960;5.582;2022-12-18T09:53:05;5.20;47.90
71237;DHT22;58984;51.960;5.582;2022-12-18T09:55:33;5.20;48.00
71237;DHT22;58984;51.960;5.582;2022-12-18T09:58:14;5.20;48.00
71237;DHT22;58984;51.960;5.582;2022-12-18T10:00:40;5.20;47.90
71237;DHT22;58984;51.960;5.582;2022-12-18T10:03:14;5.20;47.90
71237;DHT22;58984;51.960;5.582;2022-12-18T10:06:14;5.20;48.00
71237;DHT22;58984;51.960;5.582;2022-12-18T10:09:01;5.20;48.10
71237;DHT22;58984;51.960;5.582;2022-12-18T10:19:56;5.30;48.20
71237;DHT22;58984;51.960;5.582;2022-12-18T10:25:58;5.30;48.40
71237;DHT22;58984;51.960;5.582;2022-12-18T10:28:26;5.30;48.40
71237;DHT22;58984;51.960;5.582;2022-12-18T10:30:54;5.40;48.50
71237;DHT22;58984;51.960;5.582;2022-12-18T10:33:27;5.30;48.40
71237;DHT22;58984;51.960;5.582;2022-12-18T10:35:53;5.40;48.50
71237;DHT22;58984;51.960;5.582;2022-12-18T10:38:30;5.40;48.50
71237;DHT22;58984;51.960;5.582;2022-12-18T10:44:17;5.50;48.50
71237;DHT22;58984;51.960;5.582;2022-12-18T10:46:45;5.50;48.50
71237;DHT22;58984;51.960;5.582;2022-12-18T10:49:33;5.50;48.50
71237;DHT22;58984;51.960;5.582;2022-12-18T10:52:21;5.50;48.60
71237;DHT22;58984;51.960;5.582;2022-12-18T10:54:52;5.50;48.50
71237;DHT22;58984;51.960;5.582;2022-12-18T10:57:32;5.50;48.50
71237;DHT22;58984;51.960;5.582;2022-12-18T11:00:29;5.60;48.70
71237;DHT22;58984;51.960;5.582;2022-12-18T11:02:55;5.50;48.60
71237;DHT22;58984;51.960;5.582;2022-12-18T11:05:30;5.60;48.60
71237;DHT22;58984;51.960;5.582;2022-12-18T11:07:57;5.60;48.70
71237;DHT22;58984;51.960;5.582;2022-12-18T11:10:35;5.60;48.60
71237;DHT22;58984;51.960;5.582;2022-12-18T11:13:25;5.60;48.70
71237;DHT22;58984;51.960;5.582;2022-12-18T11:15:54;5.60;48.70
71237;DHT22;58984;51.960;5.582;2022-12-18T11:18:32;5.60;48.60
71237;DHT22;58984;51.960;5.582;2022-12-18T11:23:26;5.70;48.60
71237;DHT22;58984;51.960;5.582;2022-12-18T11:25:55;5.70;48.70
71237;DHT22;58984;51.960;5.582;2022-12-18T11:28:51;5.70;48.80
71237;DHT22;58984;51.960;5.582;2022-12-18T11:31:25;5.70;48.70
71237;DHT22;58984;51.960;5.582;2022-12-18T11:36:22;5.70;48.80
71237;DHT22;58984;51.960;5.582;2022-12-18T11:38:49;5.70;48.80
71237;DHT22;58984;51.960;5.582;2022-12-18T11:41:40;5.80;48.80
71237;DHT22;58984;51.960;5.582;2022-12-18T11:49:45;5.70;48.60
71237;DHT22;58984;51.960;5.582;2022-12-18T11:52:21;5.80;48.90
71237;DHT22;58984;51.960;5.582;2022-12-18T11:54:51;5.80;48.80
71237;DHT22;58984;51.960;5.582;2022-12-18T11:57:30;5.80;48.80
71237;DHT22;58984;51.960;5.582;2022-12-18T12:00:18;5.80;48.80
71237;DHT22;58984;51.960;5.582;2022-12-18T12:03:20;5.80;48.80
71237;DHT22;58984;51.960;5.582;2022-12-18T12:06:46;5.80;48.80
71237;DHT22;58984;51.960;5.582;2022-12-18T12:17:26;5.90;48.80
71237;DHT22;58984;51.960;5.582;2022-12-18T12:31:03;6.00;48.90
71237;DHT22;58984;51.960;5.582;2022-12-18T12:38:56;6.00;48.70
71237;DHT22;58984;51.960;5.582;2022-12-18T12:41:24;6.00;48.80
71237;DHT22;58984;51.960;5.582;2022-12-18T12:44:17;6.00;48.70
71237;DHT22;58984;51.960;5.582;2022-12-18T12:46:44;6.00;48.70
71237;DHT22;58984;51.960;5.582;2022-12-18T12:49:31;6.10;48.70
71237;DHT22;58984;51.960;5.582;2022-12-18T12:52:43;6.10;48.70
71237;DHT22;58984;51.960;5.582;2022-12-18T12:54:49;6.10;48.70
71237;DHT22;58984;51.960;5.582;2022-12-18T12:57:22;6.10;48.70
71237;DHT22;58984;51.960;5.582;2022-12-18T13:00:01;6.10;48.70
71237;DHT22;58984;51.960;5.582;2022-12-18T13:05:24;6.10;48.70
71237;DHT22;58984;51.960;5.582;2022-12-18T13:08:12;6.10;48.70
71237;DHT22;58984;51.960;5.582;2022-12-18T13:10:47;6.10;48.70
71237;DHT22;58984;51.960;5.582;2022-12-18T13:13:14;6.10;48.50
71237;DHT22;58984;51.960;5.582;2022-12-18T13:15:49;6.20;48.70
71237;DHT22;58984;51.960;5.582;2022-12-18T13:18:28;6.10;48.60
71237;DHT22;58984;51.960;5.582;2022-12-18T13:23:35;6.20;48.70
71237;DHT22;58984;51.960;5.582;2022-12-18T13:31:15;6.20;48.60
71237;DHT22;58984;51.960;5.582;2022-12-18T13:36:42;6.20;48.50
71237;DHT22;58984;51.960;5.582;2022-12-18T13:41:50;6.30;48.50
71237;DHT22;58984;51.960;5.582;2022-12-18T13:44:25;6.30;48.60
71237;DHT22;58984;51.960;5.582;2022-12-18T13:46:53;6.20;48.50
71237;DHT22;58984;51.960;5.582;2022-12-18T13:49:27;6.30;48.60
71237;DHT22;58984;51.960;5.582;2022-12-18T13:51:55;6.30;48.70
71237;DHT22;58984;51.960;5.582;2022-12-18T13:54:37;6.30;49.40
71237;DHT22;58984;51.960;5.582;2022-12-18T13:59:52;6.30;48.70
71237;DHT22;58984;51.960;5.582;2022-12-18T14:02:23;6.30;48.50
71237;DHT22;58984;51.960;5.582;2022-12-18T14:04:51;6.30;48.70
71237;DHT22;58984;51.960;5.582;2022-12-18T14:07:22;6.30;48.70
71237;DHT22;58984;51.960;5.582;2022-12-18T14:10:15;6.30;48.70
71237;DHT22;58984;51.960;5.582;2022-12-18T14:12:45;6.30;48.70
71237;DHT22;58984;51.960;5.582;2022-12-18T14:18:07;6.40;49.40
71237;DHT22;58984;51.960;5.582;2022-12-18T14:20:43;6.40;48.80
71237;DHT22;58984;51.960;5.582;2022-12-18T14:23:29;6.40;48.70
71237;DHT22;58984;51.960;5.582;2022-12-18T14:25:54;6.40;48.70
71237;DHT22;58984;51.960;5.582;2022-12-18T14:28:20;6.40;48.60
71237;DHT22;58984;51.960;5.582;2022-12-18T14:30:48;6.40;48.60
71237;DHT22;58984;51.960;5.582;2022-12-18T14:33:18;6.40;48.60
71237;DHT22;58984;51.960;5.582;2022-12-18T14:38:26;6.40;48.50
71237;DHT22;58984;51.960;5.582;2022-12-18T14:41:00;6.40;48.40
71237;DHT22;58984;51.960;5.582;2022-12-18T14:43:28;6.40;48.50
71237;DHT22;58984;51.960;5.582;2022-12-18T14:45:55;6.40;48.50
71237;DHT22;58984;51.960;5.582;2022-12-18T14:48:35;6.40;48.50
71237;DHT22;58984;51.960;5.582;2022-12-18T14:51:04;6.40;48.50
71237;DHT22;58984;51.960;5.582;2022-12-18T14:53:39;6.40;48.40
71237;DHT22;58984;51.960;5.582;2022-12-18T14:56:23;6.50;48.60
71237;DHT22;58984;51.960;5.582;2022-12-18T15:01:36;6.50;48.30
71237;DHT22;58984;51.960;5.582;2022-12-18T15:04:03;6.40;48.30
71237;DHT22;58984;51.960;5.582;2022-12-18T15:06:35;6.50;48.40
71237;DHT22;58984;51.960;5.582;2022-12-18T15:09:24;6.50;48.30
71237;DHT22;58984;51.960;5.582;2022-12-18T15:11:58;6.50;48.20
71237;DHT22;58984;51.960;5.582;2022-12-18T15:14:35;6.50;48.10
71237;DHT22;58984;51.960;5.582;2022-12-18T15:17:19;6.50;48.10
71237;DHT22;58984;51.960;5.582;2022-12-18T15:19:47;6.50;48.20
71237;DHT22;58984;51.960;5.582;2022-12-18T15:22:21;6.50;48.10
71237;DHT22;58984;51.960;5.582;2022-12-18T15:24:49;6.50;48.10
71237;DHT22;58984;51.960;5.582;2022-12-18T15:27:24;6.50;48.00
71237;DHT22;58984;51.960;5.582;2022-12-18T15:30:18;6.50;48.00
71237;DHT22;58984;51.960;5.582;2022-12-18T15:32:44;6.50;48.70
71237;DHT22;58984;51.960;5.582;2022-12-18T15:35:22;6.50;47.90
71237;DHT22;58984;51.960;5.582;2022-12-18T15:37:49;6.50;48.00
71237;DHT22;58984;51.960;5.582;2022-12-18T15:40:17;6.50;48.00
71237;DHT22;58984;51.960;5.582;2022-12-18T15:42:43;6.50;48.00
71237;DHT22;58984;51.960;5.582;2022-12-18T15:45:28;6.50;48.10
71237;DHT22;58984;51.960;5.582;2022-12-18T15:47:54;6.50;48.10
71237;DHT22;58984;51.960;5.582;2022-12-18T15:50:20;6.60;48.10
71237;DHT22;58984;51.960;5.582;2022-12-18T15:52:47;6.50;48.00
71237;DHT22;58984;51.960;5.582;2022-12-18T15:55:20;6.50;48.00
71237;DHT22;58984;51.960;5.582;2022-12-18T15:58:06;6.50;48.00
71237;DHT22;58984;51.960;5.582;2022-12-18T16:00:38;6.60;48.10
71237;DHT22;58984;51.960;5.582;2022-12-18T16:03:04;6.60;48.20
71237;DHT22;58984;51.960;5.582;2022-12-18T16:05:31;6.60;48.10
71237;DHT22;58984;51.960;5.582;2022-12-18T16:07:57;6.60;48.10
71237;DHT22;58984;51.960;5.582;2022-12-18T16:10:24;6.60;48.10
71237;DHT22;58984;51.960;5.582;2022-12-18T16:12:50;6.60;48.10
71237;DHT22;58984;51.960;5.582;2022-12-18T16:15:16;6.60;48.10
71237;DHT22;58984;51.960;5.582;2022-12-18T16:17:43;6.60;48.10
71237;DHT22;58984;51.960;5.582;2022-12-18T16:20:13;6.60;48.50
71237;DHT22;58984;51.960;5.582;2022-12-18T16:22:40;6.60;48.10
71237;DHT22;58984;51.960;5.582;2022-12-18T16:25:30;6.70;48.20
71237;DHT22;58984;51.960;5.582;2022-12-18T16:27:56;6.60;48.10
71237;DHT22;58984;51.960;5.582;2022-12-18T16:30:29;6.60;48.00
71237;DHT22;58984;51.960;5.582;2022-12-18T16:32:56;6.60;48.10
71237;DHT22;58984;51.960;5.582;2022-12-18T16:35:23;6.60;48.10
71237;DHT22;58984;51.960;5.582;2022-12-18T16:37:49;6.60;48.10
71237;DHT22;58984;51.960;5.582;2022-12-18T16:40:16;6.60;48.10
71237;DHT22;58984;51.960;5.582;2022-12-18T16:42:43;6.60;48.10
71237;DHT22;58984;51.960;5.582;2022-12-18T16:45:15;6.60;48.10
71237;DHT22;58984;51.960;5.582;2022-12-18T16:47:41;6.60;48.00
71237;DHT22;58984;51.960;5.582;2022-12-18T16:50:07;6.70;48.00
71237;DHT22;58984;51.960;5.582;2022-12-18T16:52:35;6.60;47.90
71237;DHT22;58984;51.960;5.582;2022-12-18T16:55:01;6.70;48.00
71237;DHT22;58984;51.960;5.582;2022-12-18T16:57:27;6.70;47.90
71237;DHT22;58984;51.960;5.582;2022-12-18T16:59:52;6.70;47.90
71237;DHT22;58984;51.960;5.582;2022-12-18T17:02:23;6.70;48.00
71237;DHT22;58984;51.960;5.582;2022-12-18T17:04:52;6.70;47.90
71237;DHT22;58984;51.960;5.582;2022-12-18T17:07:18;6.60;47.90
71237;DHT22;58984;51.960;5.582;2022-12-18T17:09:44;6.70;47.70
71237;DHT22;58984;51.960;5.582;2022-12-18T17:12:10;6.60;47.20
71237;DHT22;58984;51.960;5.582;2022-12-18T17:14:36;6.70;47.80
71237;DHT22;58984;51.960;5.582;2022-12-18T17:17:02;6.60;47.70
71237;DHT22;58984;51.960;5.582;2022-12-18T17:19:28;6.70;47.80
71237;DHT22;58984;51.960;5.582;2022-12-18T17:21:54;6.70;47.80
71237;DHT22;58984;51.960;5.582;2022-12-18T17:24:19;6.70;47.80
71237;DHT22;58984;51.960;5.582;2022-12-18T17:26:45;6.70;47.90
71237;DHT22;58984;51.960;5.582;2022-12-18T17:29:14;6.70;47.80
71237;DHT22;58984;51.960;5.582;2022-12-18T17:31:40;6.70;47.80
71237;DHT22;58984;51.960;5.582;2022-12-18T17:34:08;6.70;47.70
71237;DHT22;58984;51.960;5.582;2022-12-18T17:36:34;6.70;47.80
71237;DHT22;58984;51.960;5.582;2022-12-18T17:39:00;6.70;47.70
71237;DHT22;58984;51.960;5.582;2022-12-18T17:41:27;6.70;47.70
71237;DHT22;58984;51.960;5.582;2022-12-18T17:43:55;6.70;47.80
71237;DHT22;58984;51.960;5.582;2022-12-18T17:46:21;6.70;47.80